Time;durP1;ratioP1;P1;durP2;ratioP2;P2;SDS_P1;SDS_P2;PMS_P1;PMS_P2;Temp;Humidity;BMP_temperature;BMP_pressure;BME280_temperature;BME280_humidity;BME280_pressure;Samples;Min_cycle;Max_cycle;Signal;HPM_P1;HPM_P2
2022/10/07 00:00:13;;;;;;;0.45;0.45;;;9.20;99.90;;;;;;4383889;32;20132;-67
2022/10/07 00:02:39;;;;;;;2.08;1.05;;;9.20;99.90;;;;;;4385027;32;20398;-67
2022/10/07 00:05:05;;;;;;;0.37;0.37;;;9.10;99.90;;;;;;4384232;32;20454;-67
2022/10/07 00:07:31;;;;;;;1.02;0.98;;;9.10;99.90;;;;;;4391225;32;20093;-67
2022/10/07 00:09:56;;;;;;;2.28;0.50;;;9.10;99.90;;;;;;4376832;32;20129;-67
2022/10/07 00:12:22;;;;;;;0.55;0.50;;;9.00;99.90;;;;;;4337973;32;20114;-66
2022/10/07 00:14:47;;;;;;;1.20;0.88;;;8.90;99.90;;;;;;4350722;32;20145;-66
2022/10/07 00:17:13;;;;;;;0.30;0.30;;;8.70;99.90;;;;;;4376142;32;20069;-66
2022/10/07 00:19:38;;;;;;;2.05;0.68;;;8.70;99.90;;;;;;4368919;32;20061;-66
2022/10/07 00:22:04;;;;;;;0.57;0.57;;;8.90;99.90;;;;;;4362135;32;20675;-66
2022/10/07 00:24:29;;;;;;;0.37;0.37;;;9.00;99.90;;;;;;4365781;32;20382;-66
2022/10/07 00:26:55;;;;;;;0.50;0.50;;;8.90;99.90;;;;;;4378474;32;20506;-67
2022/10/07 00:29:20;;;;;;;0.77;0.60;;;8.90;99.90;;;;;;4368343;32;20098;-67
2022/10/07 00:31:46;;;;;;;1.15;1.10;;;8.80;99.90;;;;;;4382742;32;21090;-66
2022/10/07 00:34:11;;;;;;;2.75;0.73;;;8.80;99.90;;;;;;4383163;32;20094;-67
2022/10/07 00:36:37;;;;;;;0.60;0.60;;;8.90;99.90;;;;;;4388999;32;20085;-67
2022/10/07 00:39:08;;;;;;;0.30;0.30;;;8.90;99.90;;;;;;4373105;32;20106;-66
2022/10/07 00:41:40;;;;;;;0.70;0.70;;;8.80;99.90;;;;;;4344297;32;20250;-66
2022/10/07 00:44:47;;;;;;;0.60;0.60;;;8.70;99.90;;;;;;4346881;32;20087;-66
2022/10/07 00:47:26;;;;;;;0.37;0.37;;;9.00;99.90;;;;;;4360792;32;20089;-66
2022/10/07 00:49:57;;;;;;;6.82;0.85;;;8.80;99.90;;;;;;4368108;32;20111;-66
2022/10/07 00:52:26;;;;;;;0.52;0.52;;;8.70;99.90;;;;;;4362782;32;20086;-66
2022/10/07 00:54:53;;;;;;;0.50;0.50;;;8.70;99.90;;;;;;4368515;32;20081;-66
2022/10/07 00:57:23;;;;;;;0.45;0.45;;;8.70;99.90;;;;;;4378235;32;20110;-66
2022/10/07 00:59:49;;;;;;;2.83;0.82;;;8.70;99.90;;;;;;4383852;32;20148;-67
2022/10/07 01:02:15;;;;;;;0.57;0.57;;;8.80;99.90;;;;;;4383643;32;20189;-67
2022/10/07 01:04:41;;;;;;;0.80;0.80;;;8.80;99.90;;;;;;4379281;32;20194;-67
2022/10/07 01:07:07;;;;;;;0.65;0.65;;;8.80;99.90;;;;;;4374413;32;20101;-67
2022/10/07 01:09:33;;;;;;;0.40;0.40;;;8.60;99.90;;;;;;4379978;32;20551;-67
2022/10/07 01:12:10;;;;;;;1.37;0.88;;;8.60;99.90;;;;;;4339227;32;20082;-66
2022/10/07 01:14:51;;;;;;;0.50;0.50;;;8.70;99.90;;;;;;4348840;32;20091;-66
2022/10/07 01:17:40;;;;;;;0.62;0.60;;;8.80;99.90;;;;;;4376721;32;20081;-66
2022/10/07 01:20:29;;;;;;;0.90;0.70;;;9.00;99.90;;;;;;4355297;32;20233;-66
2022/10/07 01:23:27;;;;;;;21.55;0.60;;;9.10;99.90;;;;;;4350685;32;20549;-66
2022/10/07 01:26:14;;;;;;;0.40;0.40;;;9.10;99.90;;;;;;4363365;32;20143;-67
2022/10/07 01:28:48;;;;;;;0.68;0.68;;;9.00;99.90;;;;;;4380215;32;20103;-67
2022/10/07 01:31:19;;;;;;;1.15;1.10;;;9.00;99.90;;;;;;4385342;32;20546;-67
2022/10/07 01:33:47;;;;;;;0.40;0.40;;;8.90;99.90;;;;;;4385192;32;20085;-67
2022/10/07 01:36:16;;;;;;;0.77;0.77;;;8.80;99.90;;;;;;4388729;32;20695;-66
2022/10/07 01:38:48;;;;;;;0.37;0.37;;;8.70;99.90;;;;;;4389007;32;20308;-66
2022/10/07 01:41:18;;;;;;;5.03;0.85;;;8.70;99.90;;;;;;4350351;32;20233;-66
2022/10/07 01:43:46;;;;;;;0.32;0.32;;;8.70;99.90;;;;;;4343119;32;20943;-66
2022/10/07 01:46:17;;;;;;;8.75;1.05;;;8.70;99.90;;;;;;4369703;32;20821;-66
2022/10/07 01:48:45;;;;;;;0.57;0.52;;;8.60;99.90;;;;;;4375848;32;20232;-66
2022/10/07 01:51:11;;;;;;;0.50;0.50;;;8.50;99.90;;;;;;4365292;32;20462;-66
2022/10/07 01:54:01;;;;;;;0.65;0.60;;;8.50;99.90;;;;;;4364427;32;20596;-66
2022/10/07 01:56:54;;;;;;;0.30;0.30;;;8.40;99.90;;;;;;4364663;32;20169;-66
2022/10/07 01:59:41;;;;;;;0.88;0.60;;;8.20;99.90;;;;;;4371199;32;20617;-66
2022/10/07 02:02:21;;;;;;;0.57;0.57;;;8.20;99.90;;;;;;4373669;32;20095;-66
2022/10/07 02:05:12;;;;;;;1.23;0.60;;;8.20;99.90;;;;;;4383232;32;20914;-66
2022/10/07 02:07:40;;;;;;;;;;;8.00;99.90;;;;;;4383818;32;20074;-67
2022/10/07 02:10:15;;;;;;;1.37;0.75;;;8.00;99.90;;;;;;4372944;32;20265;-66
2022/10/07 02:13:03;;;;;;;1.65;1.45;;;8.00;99.90;;;;;;4335975;32;20782;-66
2022/10/07 02:15:41;;;;;;;0.80;0.77;;;8.10;99.90;;;;;;4360659;32;20654;-66
2022/10/07 02:18:10;;;;;;;1.45;0.57;;;8.20;99.90;;;;;;4378302;32;20346;-66
2022/10/07 02:20:38;;;;;;;0.70;0.70;;;8.10;99.90;;;;;;4363461;32;20114;-66
2022/10/07 02:23:08;;;;;;;1.65;0.65;;;8.00;99.90;;;;;;4367011;32;20061;-67
2022/10/07 02:25:41;;;;;;;2.12;1.65;;;8.00;99.90;;;;;;4371592;32;20073;-66
2022/10/07 02:28:09;;;;;;;0.30;0.30;;;8.00;99.90;;;;;;4381744;32;20442;-66
2022/10/07 02:30:36;;;;;;;0.50;0.50;;;7.90;99.90;;;;;;4383227;32;20426;-67
2022/10/07 02:33:04;;;;;;;0.45;0.45;;;7.80;99.90;;;;;;4383063;32;20066;-66
2022/10/07 02:35:53;;;;;;;1.98;1.15;;;7.80;99.90;;;;;;4388191;32;20572;-66
2022/10/07 02:38:21;;;;;;;0.50;0.50;;;7.90;99.90;;;;;;4382366;32;20054;-67
2022/10/07 02:41:30;;;;;;;1.37;1.08;;;7.90;99.90;;;;;;4344652;32;20074;-66
2022/10/07 02:44:17;;;;;;;0.50;0.50;;;7.90;99.90;;;;;;4334000;32;20533;-66
2022/10/07 02:46:50;;;;;;;0.40;0.40;;;7.80;99.90;;;;;;4362712;32;20061;-67
2022/10/07 02:49:20;;;;;;;1.05;0.68;;;7.90;99.90;;;;;;4373261;32;20576;-66
2022/10/07 02:51:54;;;;;;;0.50;0.50;;;7.90;99.90;;;;;;4359721;32;20523;-66
2022/10/07 02:54:27;;;;;;;0.40;0.40;;;7.90;99.90;;;;;;4364654;32;20362;-66
2022/10/07 02:56:54;;;;;;;1.02;0.52;;;8.00;99.90;;;;;;4363860;32;20313;-67
2022/10/07 02:59:21;;;;;;;0.50;0.50;;;7.80;99.90;;;;;;4380554;32;20372;-66
2022/10/07 03:01:52;;;;;;;0.30;0.30;;;7.80;99.90;;;;;;4380791;32;20144;-66
2022/10/07 03:04:18;;;;;;;1.67;1.25;;;7.90;99.90;;;;;;4384893;32;20077;-66
2022/10/07 03:06:44;;;;;;;0.45;0.45;;;7.90;99.90;;;;;;4389763;32;20066;-66
2022/10/07 03:09:10;;;;;;;0.50;0.50;;;7.80;99.90;;;;;;4370342;32;20718;-66
2022/10/07 03:11:38;;;;;;;0.60;0.52;;;7.90;99.90;;;;;;4342835;32;20101;-66
2022/10/07 03:14:04;;;;;;;0.40;0.40;;;7.90;99.90;;;;;;4346831;32;20110;-66
2022/10/07 03:16:30;;;;;;;0.40;0.40;;;7.80;99.90;;;;;;4373796;32;20091;-66
2022/10/07 03:18:57;;;;;;;1.40;0.98;;;7.80;99.90;;;;;;4370199;32;20687;-66
2022/10/07 03:21:23;;;;;;;0.30;0.30;;;7.80;99.90;;;;;;4361856;32;20330;-66
2022/10/07 03:23:51;;;;;;;0.85;0.70;;;7.70;99.90;;;;;;4366440;32;20073;-66
2022/10/07 03:26:17;;;;;;;0.35;0.35;;;7.60;99.90;;;;;;4376561;32;20498;-66
2022/10/07 03:28:43;;;;;;;0.47;0.47;;;7.70;99.90;;;;;;4380261;32;20078;-66
2022/10/07 03:31:10;;;;;;;1.73;0.73;;;7.80;99.90;;;;;;4381819;32;20586;-66
2022/10/07 03:33:36;;;;;;;1.80;1.58;;;7.60;99.90;;;;;;4369934;32;20076;-66
2022/10/07 03:36:04;;;;;;;0.40;0.40;;;7.50;99.90;;;;;;4381729;32;20110;-66
2022/10/07 03:38:30;;;;;;;14.70;0.95;;;7.50;99.90;;;;;;4377183;32;20225;-66
2022/10/07 03:40:56;;;;;;;0.37;0.37;;;7.60;99.90;;;;;;4356857;32;21056;-65
2022/10/07 03:43:22;;;;;;;0.50;0.50;;;7.60;99.90;;;;;;4336610;32;20412;-66
2022/10/07 03:45:49;;;;;;;0.52;0.52;;;7.50;99.90;;;;;;4360885;32;20074;-66
2022/10/07 03:48:15;;;;;;;1.00;0.88;;;7.50;99.90;;;;;;4373862;32;20373;-66
2022/10/07 03:50:46;;;;;;;0.40;0.40;;;7.60;99.90;;;;;;4363651;32;20529;-66
2022/10/07 03:53:11;;;;;;;0.68;0.68;;;7.60;99.90;;;;;;4347836;32;20384;-66
2022/10/07 03:55:37;;;;;;;0.35;0.35;;;7.70;99.90;;;;;;4370851;32;20284;-66
2022/10/07 03:58:02;;;;;;;0.30;0.30;;;7.60;99.90;;;;;;4381552;32;20192;-67
2022/10/07 04:00:28;;;;;;;0.25;0.25;;;7.50;99.90;;;;;;4381935;32;20204;-66
2022/10/07 04:02:53;;;;;;;24.17;0.70;;;7.40;99.90;;;;;;4381439;32;20525;-66
2022/10/07 04:05:20;;;;;;;0.85;0.85;;;7.40;99.90;;;;;;4379076;32;20775;-67
2022/10/07 04:07:47;;;;;;;0.82;0.82;;;7.40;99.90;;;;;;4385231;32;20085;-66
2022/10/07 04:10:15;;;;;;;0.30;0.30;;;7.50;99.90;;;;;;4353593;32;20662;-66
2022/10/07 04:12:41;;;;;;;0.40;0.40;;;7.50;99.90;;;;;;4337497;32;20144;-66
2022/10/07 04:15:07;;;;;;;0.30;0.30;;;7.50;99.90;;;;;;4352286;32;20171;-66
2022/10/07 04:17:33;;;;;;;0.30;0.30;;;7.40;99.90;;;;;;4377377;32;20343;-66
2022/10/07 04:19:58;;;;;;;0.60;0.60;;;7.40;99.90;;;;;;4365404;32;20058;-67
2022/10/07 04:22:24;;;;;;;5.37;1.40;;;7.30;99.90;;;;;;4352693;32;20619;-66
2022/10/07 04:25:51;;;;;;;0.47;0.47;;;7.30;99.90;;;;;;4356658;32;20191;-66
2022/10/07 04:27:36;;;;;;;0.30;0.30;;;7.40;99.90;;;;;;4357821;32;20932;-66
2022/10/07 04:30:03;;;;;;;0.40;0.40;;;7.40;99.90;;;;;;4366566;32;20077;-66
2022/10/07 04:32:29;;;;;;;0.45;0.45;;;7.40;99.90;;;;;;4374802;32;20081;-66
2022/10/07 04:34:55;;;;;;;1.85;0.55;;;7.40;99.90;;;;;;4366655;32;20552;-66
2022/10/07 04:37:20;;;;;;;0.30;0.30;;;7.40;99.90;;;;;;4382305;32;20352;-67
2022/10/07 04:39:45;;;;;;;1.12;0.68;;;7.40;99.90;;;;;;4377727;32;20069;-66
2022/10/07 04:43:17;;;;;;;0.30;0.30;;;7.40;99.90;;;;;;4341786;32;20124;-66
2022/10/07 04:44:56;;;;;;;0.85;0.73;;;7.30;99.90;;;;;;4345369;32;20122;-66
2022/10/07 04:47:22;;;;;;;0.52;0.52;;;7.30;99.90;;;;;;4377225;32;20073;-66
2022/10/07 04:49:47;;;;;;;0.45;0.45;;;7.30;99.90;;;;;;4371355;32;20656;-66
2022/10/07 04:52:13;;;;;;;0.82;0.82;;;7.30;99.90;;;;;;4362759;32;20081;-66
2022/10/07 04:54:39;;;;;;;0.82;0.52;;;7.30;99.90;;;;;;4353588;32;20229;-66
2022/10/07 04:57:05;;;;;;;0.43;0.43;;;7.20;99.90;;;;;;4371813;32;20091;-66
2022/10/07 04:59:30;;;;;;;0.30;0.30;;;7.30;99.90;;;;;;4381951;32;20061;-66
2022/10/07 05:01:56;;;;;;;0.22;0.22;;;7.30;99.90;;;;;;4376332;32;20097;-66
2022/10/07 05:04:22;;;;;;;0.47;0.47;;;7.20;99.90;;;;;;4373026;32;20969;-66
2022/10/07 05:06:48;;;;;;;0.60;0.60;;;7.20;99.90;;;;;;4384870;32;20073;-67
2022/10/07 05:09:13;;;;;;;1.20;1.10;;;7.20;99.90;;;;;;4373901;32;20220;-66
2022/10/07 05:11:39;;;;;;;0.65;0.65;;;7.20;99.90;;;;;;4344131;32;20347;-66
2022/10/07 05:14:04;;;;;;;0.75;0.52;;;7.10;99.90;;;;;;4350769;32;20114;-66
2022/10/07 05:16:30;;;;;;;6.10;0.98;;;7.10;99.90;;;;;;4366378;32;20073;-66
2022/10/07 05:18:56;;;;;;;1.00;0.85;;;7.10;99.90;;;;;;4370378;32;20339;-66
2022/10/07 05:21:21;;;;;;;1.05;0.95;;;7.10;99.90;;;;;;4372165;32;20098;-66
2022/10/07 05:23:46;;;;;;;0.30;0.30;;;7.00;99.90;;;;;;4355570;32;20918;-66
2022/10/07 05:26:12;;;;;;;1.37;1.02;;;7.00;99.90;;;;;;4371707;32;20113;-66
2022/10/07 05:28:39;;;;;;;0.50;0.50;;;7.10;99.90;;;;;;4381210;32;20975;-66
2022/10/07 05:31:07;;;;;;;0.30;0.30;;;7.10;99.90;;;;;;4373349;32;20300;-66
2022/10/07 05:33:33;;;;;;;0.40;0.40;;;7.10;99.90;;;;;;4366086;32;20257;-66
2022/10/07 05:35:59;;;;;;;0.62;0.60;;;7.10;99.90;;;;;;4370500;32;20098;-66
2022/10/07 05:38:27;;;;;;;0.80;0.75;;;7.20;99.90;;;;;;4363248;32;20424;-66
2022/10/07 05:40:58;;;;;;;1.70;0.88;;;7.20;99.90;;;;;;4357494;32;20326;-66
2022/10/07 05:43:25;;;;;;;0.43;0.43;;;7.10;99.90;;;;;;4354716;32;20082;-66
2022/10/07 05:46:01;;;;;;;0.40;0.40;;;7.20;99.90;;;;;;4347419;32;20227;-66
2022/10/07 05:48:28;;;;;;;0.40;0.40;;;7.20;99.90;;;;;;4368207;32;20221;-66
2022/10/07 05:50:56;;;;;;;0.40;0.40;;;7.10;99.90;;;;;;4368796;32;20111;-66
2022/10/07 05:53:24;;;;;;;1.50;1.10;;;7.10;99.90;;;;;;4364470;32;20411;-67
2022/10/07 05:55:50;;;;;;;3.12;0.80;;;7.10;99.90;;;;;;4368324;32;20106;-65
2022/10/07 05:58:16;;;;;;;0.52;0.52;;;7.20;99.90;;;;;;4370980;32;20093;-65
2022/10/07 06:00:49;;;;;;;0.37;0.37;;;7.30;99.90;;;;;;4365901;32;20130;-67
2022/10/07 06:03:15;;;;;;;0.40;0.40;;;7.40;99.90;;;;;;4394764;27;20510;-77
2022/10/07 06:05:44;;;;;;;0.32;0.32;;;7.50;99.90;;;;;;4383831;32;20108;-79
2022/10/07 06:08:09;;;;;;;0.55;0.55;;;7.50;99.90;;;;;;4395920;32;20252;-75
2022/10/07 06:13:09;;;;;;;0.40;0.40;;;7.60;99.90;;;;;;4395371;32;20100;-79
2022/10/07 06:13:26;;;;;;;0.32;0.32;;;7.70;99.90;;;;;;4385985;32;20137;-79
2022/10/07 06:15:51;;;;;;;0.50;0.50;;;7.70;99.90;;;;;;4400045;32;20168;-78
2022/10/07 06:18:17;;;;;;;0.50;0.50;;;7.90;99.90;;;;;;4402285;32;20117;-78
2022/10/07 06:20:51;;;;;;;0.40;0.40;;;7.90;99.90;;;;;;4409347;32;20388;-80
2022/10/07 06:23:16;;;;;;;0.88;0.88;;;8.00;99.90;;;;;;4401617;32;20173;-79
2022/10/07 06:25:42;;;;;;;0.68;0.65;;;8.10;99.90;;;;;;4422365;32;20122;-80
2022/10/07 06:28:08;;;;;;;0.60;0.60;;;8.20;99.90;;;;;;4412106;32;20096;-78
2022/10/07 06:30:36;;;;;;;1.95;1.17;;;8.30;99.90;;;;;;4401690;32;20486;-79
2022/10/07 06:33:02;;;;;;;1.65;1.20;;;8.30;99.90;;;;;;4402212;32;20559;-80
2022/10/07 06:35:27;;;;;;;0.30;0.30;;;8.20;99.90;;;;;;4397587;32;20216;-79
2022/10/07 06:37:53;;;;;;;6.60;2.65;;;8.30;99.90;;;;;;4403686;32;20743;-78
2022/10/07 06:40:19;;;;;;;0.32;0.32;;;8.40;99.90;;;;;;4384507;32;20101;-76
2022/10/07 06:42:44;;;;;;;8.38;0.68;;;8.40;99.90;;;;;;4381253;32;20461;-77
2022/10/07 06:45:10;;;;;;;0.50;0.50;;;8.50;99.90;;;;;;4394376;32;20600;-79
2022/10/07 06:47:35;;;;;;;9.43;0.77;;;8.60;99.90;;;;;;4400216;32;20077;-79
2022/10/07 06:50:02;;;;;;;0.70;0.70;;;8.60;99.90;;;;;;4407613;32;20782;-80
2022/10/07 06:52:28;;;;;;;0.40;0.40;;;8.60;99.90;;;;;;4401598;32;20110;-79
2022/10/07 06:54:53;;;;;;;0.90;0.60;;;8.70;99.90;;;;;;4394786;32;20490;-79
2022/10/07 06:57:20;;;;;;;0.75;0.75;;;8.80;99.90;;;;;;4406669;32;20118;-79
2022/10/07 06:59:45;;;;;;;0.60;0.60;;;8.90;99.90;;;;;;4410617;32;20177;-80
2022/10/07 07:02:11;;;;;;;0.32;0.32;;;9.00;99.90;;;;;;4401426;32;20102;-79
2022/10/07 07:04:37;;;;;;;3.83;1.20;;;9.00;99.90;;;;;;4407966;32;20093;-79
2022/10/07 07:07:03;;;;;;;2.72;0.55;;;9.10;99.90;;;;;;4413324;32;20090;-80
2022/10/07 07:09:30;;;;;;;12.82;1.12;;;9.20;99.90;;;;;;4395148;32;20088;-76
2022/10/07 07:11:57;;;;;;;0.50;0.50;;;9.30;99.90;;;;;;4381821;32;20250;-76
2022/10/07 07:14:24;;;;;;;0.75;0.75;;;9.40;99.90;;;;;;4389048;32;21517;-76
2022/10/07 07:16:49;;;;;;;0.60;0.60;;;9.40;99.90;;;;;;4390822;32;20136;-75
2022/10/07 07:19:15;;;;;;;0.50;0.50;;;9.50;99.90;;;;;;4402748;32;20836;-75
2022/10/07 07:21:40;;;;;;;0.30;0.30;;;9.60;99.90;;;;;;4393428;32;20979;-75
2022/10/07 07:24:06;;;;;;;1.30;0.90;;;9.60;99.90;;;;;;4370933;32;20106;-77
2022/10/07 07:26:32;;;;;;;5.30;1.87;;;9.70;99.90;;;;;;4374675;32;20690;-77
2022/10/07 07:29:00;;;;;;;3.60;0.68;;;9.80;99.90;;;;;;4386317;32;20282;-75
2022/10/07 07:31:27;;;;;;;0.37;0.30;;;9.90;99.90;;;;;;4383096;32;20215;-76
2022/10/07 07:33:54;;;;;;;0.45;0.45;;;10.10;99.90;;;;;;4373283;32;20848;-76
2022/10/07 07:36:23;;;;;;;5.35;2.67;;;10.10;99.90;;;;;;4382976;32;20384;-76
2022/10/07 07:38:51;;;;;;;3.40;0.85;;;10.20;99.90;;;;;;4390372;32;20114;-77
2022/10/07 07:41:20;;;;;;;0.22;0.22;;;10.30;99.90;;;;;;4388623;32;20203;-76
2022/10/07 07:43:48;;;;;;;0.40;0.40;;;10.40;99.90;;;;;;4389004;32;20118;-75
2022/10/07 07:46:13;;;;;;;0.75;0.75;;;10.50;99.90;;;;;;4384421;32;20402;-75
2022/10/07 07:48:39;;;;;;;0.73;0.73;;;10.50;99.90;;;;;;4394290;32;20129;-74
2022/10/07 07:51:05;;;;;;;0.47;0.47;;;10.60;99.90;;;;;;4369667;32;20097;-75
2022/10/07 07:53:31;;;;;;;0.98;0.68;;;10.70;99.90;;;;;;4359459;32;21263;-76
2022/10/07 07:55:57;;;;;;;0.40;0.40;;;10.80;99.90;;;;;;4374480;32;20565;-76
2022/10/07 07:58:23;;;;;;;0.50;0.50;;;10.90;99.90;;;;;;4385461;32;20581;-75
2022/10/07 08:00:59;;;;;;;2.90;0.95;;;11.00;99.90;;;;;;4382312;32;20281;-76
2022/10/07 08:03:25;;;;;;;0.45;0.45;;;11.10;99.90;;;;;;4372945;32;20338;-75
2022/10/07 08:05:51;;;;;;;4.78;1.37;;;11.20;99.90;;;;;;4384426;32;21035;-75
2022/10/07 08:08:16;;;;;;;1.17;0.75;;;11.40;99.90;;;;;;4367494;32;20109;-76
2022/10/07 08:10:43;;;;;;;3.92;1.45;;;11.50;99.90;;;;;;4375370;32;20489;-76
2022/10/07 08:13:08;;;;;;;0.90;0.55;;;11.60;99.90;;;;;;4374185;32;20132;-75
2022/10/07 08:15:34;;;;;;;1.27;0.80;;;11.70;99.90;;;;;;4386388;32;20086;-75
2022/10/07 08:18:02;;;;;;;0.65;0.60;;;11.70;99.90;;;;;;4381227;32;20264;-75
2022/10/07 08:20:27;;;;;;;0.47;0.47;;;11.80;99.90;;;;;;4388522;32;20098;-76
2022/10/07 08:22:53;;;;;;;8.40;0.50;;;11.90;99.90;;;;;;4383869;32;20542;-76
2022/10/07 08:25:18;;;;;;;1.25;0.75;;;12.00;99.90;;;;;;4396371;32;20094;-76
2022/10/07 08:27:44;;;;;;;0.80;0.60;;;12.10;99.90;;;;;;4395900;32;20356;-76
2022/10/07 08:30:10;;;;;;;1.80;0.98;;;12.30;99.90;;;;;;4393407;32;20126;-76
2022/10/07 08:32:35;;;;;;;0.47;0.47;;;12.30;99.90;;;;;;4393087;32;94627;-76
2022/10/07 08:35:01;;;;;;;0.40;0.40;;;12.40;99.90;;;;;;4379069;32;20413;-75
2022/10/07 08:37:27;;;;;;;2.05;0.77;;;12.50;99.90;;;;;;4387983;32;20814;-75
2022/10/07 08:39:52;;;;;;;1.00;0.70;;;12.60;99.90;;;;;;4390392;32;21087;-75
2022/10/07 08:42:32;;;;;;;0.30;0.30;;;12.70;99.90;;;;;;4398652;32;20081;-74
2022/10/07 08:44:58;;;;;;;1.77;0.80;;;12.70;99.90;;;;;;4406774;32;20130;-75
2022/10/07 08:47:36;;;;;;;1.20;0.73;;;12.80;99.90;;;;;;4387094;32;20097;-76
2022/10/07 08:50:25;;;;;;;1.08;0.57;;;12.90;99.90;;;;;;4385559;32;20353;-75
2022/10/07 08:52:59;;;;;;;0.68;0.68;;;13.00;99.90;;;;;;4360614;32;21011;-76
2022/10/07 08:55:34;;;;;;;0.52;0.52;;;13.10;99.90;;;;;;4378905;32;20543;-76
2022/10/07 08:58:21;;;;;;;2.55;1.05;;;13.20;99.90;;;;;;4376263;32;20634;-75
2022/10/07 09:01:10;;;;;;;2.22;1.27;;;13.40;99.90;;;;;;4354156;32;20839;-74
2022/10/07 09:03:50;;;;;;;0.30;0.30;;;13.40;99.90;;;;;;4353982;32;20104;-75
2022/10/07 09:06:27;;;;;;;0.50;0.50;;;13.60;99.90;;;;;;4373405;32;20089;-76
2022/10/07 09:09:01;;;;;;;1.35;1.15;;;13.60;99.90;;;;;;4394649;32;20222;-75
2022/10/07 09:11:29;;;;;;;0.50;0.50;;;13.70;99.90;;;;;;4384358;32;20566;-76
2022/10/07 09:14:01;;;;;;;0.65;0.50;;;13.80;99.90;;;;;;4395823;32;20077;-74
2022/10/07 09:16:34;;;;;;;1.17;0.62;;;13.90;99.90;;;;;;4391446;32;20108;-74
2022/10/07 09:19:02;;;;;;;0.40;0.40;;;14.10;99.90;;;;;;4380347;32;20101;-75
2022/10/07 09:21:48;;;;;;;2.72;0.82;;;14.20;99.90;;;;;;4363576;32;20347;-76
2022/10/07 09:24:21;;;;;;;0.60;0.60;;;14.30;99.90;;;;;;4344436;32;20129;-76
2022/10/07 09:26:47;;;;;;;0.30;0.30;;;14.40;99.90;;;;;;4357863;32;20299;-75
2022/10/07 09:29:13;;;;;;;0.50;0.50;;;14.50;99.90;;;;;;4365135;32;21182;-74
2022/10/07 09:31:39;;;;;;;0.73;0.73;;;14.60;99.90;;;;;;4361042;32;20173;-75
2022/10/07 09:34:05;;;;;;;1.50;1.23;;;14.60;99.90;;;;;;4382478;32;20105;-75
2022/10/07 09:36:30;;;;;;;0.57;0.57;;;14.60;99.90;;;;;;4372323;32;20093;-74
2022/10/07 09:39:14;;;;;;;0.40;0.40;;;14.70;99.90;;;;;;4362615;32;20113;-76
2022/10/07 09:41:41;;;;;;;0.30;0.30;;;14.70;99.90;;;;;;4347268;32;20168;-78
2022/10/07 09:44:16;;;;;;;1.02;0.60;;;14.80;99.90;;;;;;4383086;32;20097;-76
2022/10/07 09:46:58;;;;;;;0.30;0.30;;;14.90;99.90;;;;;;4381602;32;21677;-78
2022/10/07 09:49:27;;;;;;;0.30;0.30;;;15.10;99.90;;;;;;4369684;32;20199;-77
2022/10/07 09:52:15;;;;;;;0.50;0.50;;;15.30;99.90;;;;;;4384369;32;20183;-77
2022/10/07 09:54:42;;;;;;;0.30;0.30;;;15.30;99.90;;;;;;4371097;32;20221;-78
2022/10/07 09:57:28;;;;;;;0.43;0.40;;;15.30;99.90;;;;;;4382529;32;20304;-78
2022/10/07 10:00:16;;;;;;;0.50;0.50;;;15.30;99.90;;;;;;4375647;32;20109;-78
2022/10/07 10:02:46;;;;;;;0.50;0.50;;;15.50;99.90;;;;;;4361829;32;20350;-77
2022/10/07 10:05:25;;;;;;;0.50;0.50;;;15.60;99.90;;;;;;4377702;32;20082;-78
2022/10/07 10:07:55;;;;;;;0.30;0.30;;;15.60;99.90;;;;;;4382617;32;20089;-76
2022/10/07 10:10:31;;;;;;;1.50;0.80;;;15.70;99.90;;;;;;4378217;32;20129;-76
2022/10/07 10:12:58;;;;;;;0.47;0.47;;;15.90;99.90;;;;;;4388091;32;20206;-75
2022/10/07 10:15:27;;;;;;;0.50;0.50;;;16.00;99.90;;;;;;4393658;32;20094;-75
2022/10/07 10:17:55;;;;;;;0.35;0.35;;;16.10;99.90;;;;;;4369158;32;20813;-76
2022/10/07 10:20:42;;;;;;;0.30;0.30;;;16.20;99.90;;;;;;4379115;32;20592;-77
2022/10/07 10:23:28;;;;;;;0.35;0.35;;;16.10;99.90;;;;;;4378441;32;20110;-77
2022/10/07 10:26:28;;;;;;;0.40;0.40;;;16.20;99.90;;;;;;4346351;32;20156;-76
2022/10/07 10:29:23;;;;;;;0.30;0.30;;;16.20;99.90;;;;;;4389066;32;20101;-77
2022/10/07 10:32:09;;;;;;;0.50;0.50;;;16.30;99.90;;;;;;4370116;32;20316;-77
2022/10/07 10:34:59;;;;;;;0.65;0.45;;;16.40;99.90;;;;;;4365061;32;20505;-78
2022/10/07 10:37:50;;;;;;;0.30;0.30;;;16.30;99.90;;;;;;4375596;32;21193;-77
2022/10/07 10:40:40;;;;;;;0.70;0.70;;;16.40;99.90;;;;;;4384242;32;20073;-75
2022/10/07 10:43:45;;;;;;;0.43;0.43;;;16.40;99.90;;;;;;4371011;32;20732;-77
2022/10/07 10:46:25;;;;;;;0.50;0.50;;;16.50;99.90;;;;;;4368444;32;20182;-78
2022/10/07 10:49:05;;;;;;;0.30;0.30;;;16.60;99.90;;;;;;4395037;32;20105;-78
2022/10/07 10:52:07;;;;;;;0.28;0.28;;;16.70;99.90;;;;;;4388182;32;20106;-79
2022/10/07 10:55:13;;;;;;;0.50;0.50;;;16.90;99.90;;;;;;4362846;32;20822;-78
2022/10/07 10:57:49;;;;;;;5.55;0.80;;;16.90;99.90;;;;;;4364310;32;20198;-76
2022/10/07 11:00:19;;;;;;;2.90;1.05;;;17.10;99.90;;;;;;4377437;32;20325;-75
2022/10/07 11:03:01;;;;;;;0.43;0.43;;;17.10;99.90;;;;;;4378225;32;20399;-77
2022/10/07 11:05:35;;;;;;;0.60;0.60;;;17.30;99.90;;;;;;4399453;32;20114;-77
2022/10/07 11:08:15;;;;;;;1.80;1.20;;;17.60;99.90;;;;;;4408687;32;20078;-77
2022/10/07 11:10:50;;;;;;;0.50;0.50;;;17.80;99.90;;;;;;4386468;32;20134;-77
2022/10/07 11:13:29;;;;;;;0.40;0.40;;;18.00;99.90;;;;;;4391908;32;20139;-77
2022/10/07 11:16:05;;;;;;;0.73;0.73;;;18.00;99.90;;;;;;4362283;32;20266;-78
2022/10/07 11:18:55;;;;;;;0.40;0.40;;;18.20;99.90;;;;;;4374669;32;20085;-77
2022/10/07 11:21:31;;;;;;;0.33;0.33;;;18.50;99.90;;;;;;4373257;32;20213;-77
2022/10/07 11:24:25;;;;;;;0.40;0.40;;;18.50;99.90;;;;;;4368623;32;20085;-76
2022/10/07 11:26:57;;;;;;;0.30;0.30;;;18.60;99.90;;;;;;4373932;32;20357;-76
2022/10/07 11:29:50;;;;;;;5.30;0.85;;;18.80;99.90;;;;;;4388856;32;20086;-77
2022/10/07 11:32:41;;;;;;;0.40;0.40;;;19.00;99.90;;;;;;4385646;32;20144;-77
2022/10/07 11:35:42;;;;;;;1.48;1.33;;;19.50;99.90;;;;;;4378035;32;20228;-77
2022/10/07 11:38:15;;;;;;;0.30;0.30;;;19.50;99.90;;;;;;4396459;32;20158;-77
2022/10/07 11:40:48;;;;;;;0.20;0.20;;;19.70;99.90;;;;;;4393915;32;20117;-77
2022/10/07 11:43:38;;;;;;;0.40;0.40;;;19.90;99.90;;;;;;4375565;32;20106;-77
2022/10/07 11:46:30;;;;;;;0.35;0.35;;;20.30;99.90;;;;;;4371674;32;20375;-75
2022/10/07 11:49:02;;;;;;;0.50;0.50;;;20.20;99.90;;;;;;4373263;32;20227;-76
2022/10/07 11:51:36;;;;;;;0.20;0.20;;;20.40;99.90;;;;;;4382523;32;20132;-78
2022/10/07 11:54:05;;;;;;;0.40;0.40;;;20.90;99.30;;;;;;4380120;32;20452;-75
2022/10/07 11:56:50;;;;;;;0.32;0.32;;;21.10;98.30;;;;;;4378529;32;20253;-78
2022/10/07 11:59:42;;;;;;;0.43;0.43;;;21.10;97.90;;;;;;4386514;32;20610;-78
2022/10/07 12:02:29;;;;;;;0.55;0.55;;;21.50;97.50;;;;;;4374340;32;20097;-77
2022/10/07 12:05:00;;;;;;;1.45;1.12;;;21.70;96.70;;;;;;4362750;32;20112;-78
2022/10/07 12:07:55;;;;;;;0.32;0.32;;;21.70;96.20;;;;;;4390633;32;20883;-75
2022/10/07 12:10:27;;;;;;;0.20;0.20;;;22.30;95.70;;;;;;4380812;32;20402;-77
2022/10/07 12:12:59;;;;;;;0.28;0.28;;;22.20;95.00;;;;;;4379021;32;20117;-77
2022/10/07 12:15:27;;;;;;;0.30;0.30;;;22.30;95.00;;;;;;4391431;32;20229;-76
2022/10/07 12:18:12;;;;;;;0.55;0.55;;;22.60;94.20;;;;;;4387305;32;21639;-74
2022/10/07 12:20:58;;;;;;;0.75;0.47;;;22.90;93.80;;;;;;4378893;32;20913;-75
2022/10/07 12:23:28;;;;;;;0.25;0.25;;;22.90;94.20;;;;;;4362030;32;20125;-76
2022/10/07 12:25:57;;;;;;;0.85;0.30;;;23.20;94.20;;;;;;4362472;32;20620;-77
2022/10/07 12:28:41;;;;;;;0.30;0.30;;;23.10;94.10;;;;;;4374908;32;21348;-76
2022/10/07 12:31:17;;;;;;;0.20;0.20;;;23.50;93.60;;;;;;4379917;32;20234;-76
2022/10/07 12:33:45;;;;;;;1.37;0.80;;;23.60;92.10;;;;;;4376255;32;20396;-77
2022/10/07 12:36:27;;;;;;;0.77;0.28;;;23.30;92.40;;;;;;4350420;32;20093;-77
2022/10/07 12:38:58;;;;;;;0.20;0.20;;;22.90;91.80;;;;;;4378782;32;20090;-75
2022/10/07 12:41:26;;;;;;;0.15;0.15;;;22.80;92.40;;;;;;4371023;32;20945;-77
2022/10/07 12:44:05;;;;;;;7.22;0.95;;;22.90;92.10;;;;;;4377829;32;20710;-76
2022/10/07 12:46:37;;;;;;;0.20;0.20;;;22.90;91.50;;;;;;4374206;32;20163;-75
2022/10/07 12:49:16;;;;;;;0.50;0.50;;;22.50;91.70;;;;;;4390703;32;20338;-75
2022/10/07 12:51:43;;;;;;;0.20;0.20;;;22.00;92.60;;;;;;4380461;32;20151;-75
2022/10/07 12:54:19;;;;;;;0.43;0.43;;;21.70;93.10;;;;;;4380721;32;20104;-77
2022/10/07 12:56:45;;;;;;;0.52;0.52;;;21.30;93.80;;;;;;4381826;32;20101;-77
2022/10/07 12:59:52;;;;;;;0.65;0.43;;;21.20;93.80;;;;;;4383560;32;20316;-76
2022/10/07 13:02:46;;;;;;;1.20;1.10;;;21.00;94.20;;;;;;4362669;32;20189;-77
2022/10/07 13:05:49;;;;;;;0.30;0.30;;;20.90;94.60;;;;;;4356000;32;20256;-76
2022/10/07 13:08:45;;;;;;;0.32;0.32;;;20.70;93.80;;;;;;4378858;32;20089;-76
2022/10/07 13:11:23;;;;;;;1.17;1.02;;;20.40;94.20;;;;;;4369880;32;20515;-76
2022/10/07 13:14:12;;;;;;;0.70;0.62;;;19.80;96.00;;;;;;4393102;32;20349;-77
2022/10/07 13:17:06;;;;;;;0.30;0.30;;;19.70;96.50;;;;;;4393563;32;20082;-76
2022/10/07 13:19:41;;;;;;;0.40;0.40;;;19.60;99.90;;;;;;4380046;32;20479;-76